sensor_id;sensor_type;location;lat;lon;timestamp;P1;durP1;ratioP1;P2;durP2;ratioP2
10082;SDS011;5080;48.528;8.078;2022-10-31T00:01:49;1.75;;;1.30;;
10082;SDS011;5080;48.528;8.078;2022-10-31T00:04:17;1.30;;;1.20;;
10082;SDS011;5080;48.528;8.078;2022-10-31T00:06:44;1.23;;;1.20;;
10082;SDS011;5080;48.528;8.078;2022-10-31T00:09:11;1.20;;;1.20;;
10082;SDS011;5080;48.528;8.078;2022-10-31T00:11:38;1.63;;;1.30;;
10082;SDS011;5080;48.528;8.078;2022-10-31T00:14:05;1.03;;;0.90;;
10082;SDS011;5080;48.528;8.078;2022-10-31T00:16:32;1.40;;;1.30;;
10082;SDS011;5080;48.528;8.078;2022-10-31T00:18:59;1.38;;;1.20;;
10082;SDS011;5080;48.528;8.078;2022-10-31T00:21:29;1.10;;;1.10;;
10082;SDS011;5080;48.528;8.078;2022-10-31T00:23:57;1.13;;;1.10;;
10082;SDS011;5080;48.528;8.078;2022-10-31T00:26:24;1.73;;;1.20;;
10082;SDS011;5080;48.528;8.078;2022-10-31T00:28:52;1.20;;;1.20;;
10082;SDS011;5080;48.528;8.078;2022-10-31T00:31:19;1.20;;;1.10;;
10082;SDS011;5080;48.528;8.078;2022-10-31T00:33:46;1.17;;;1.17;;
10082;SDS011;5080;48.528;8.078;2022-10-31T00:36:13;1.00;;;1.00;;
10082;SDS011;5080;48.528;8.078;2022-10-31T00:38:43;3.40;;;1.33;;
10082;SDS011;5080;48.528;8.078;2022-10-31T00:41:11;1.30;;;1.20;;
10082;SDS011;5080;48.528;8.078;2022-10-31T00:43:38;1.40;;;1.30;;
10082;SDS011;5080;48.528;8.078;2022-10-31T00:46:05;1.33;;;1.23;;
10082;SDS011;5080;48.528;8.078;2022-10-31T00:48:32;1.20;;;1.20;;
10082;SDS011;5080;48.528;8.078;2022-10-31T00:50:59;1.33;;;1.23;;
10082;SDS011;5080;48.528;8.078;2022-10-31T00:53:26;1.45;;;1.35;;
10082;SDS011;5080;48.528;8.078;2022-10-31T00:55:54;1.45;;;1.27;;
10082;SDS011;5080;48.528;8.078;2022-10-31T00:58:21;1.30;;;1.20;;
10082;SDS011;5080;48.528;8.078;2022-10-31T01:00:48;2.03;;;1.77;;
10082;SDS011;5080;48.528;8.078;2022-10-31T01:03:19;1.08;;;1.08;;
10082;SDS011;5080;48.528;8.078;2022-10-31T01:05:54;1.47;;;1.33;;
10082;SDS011;5080;48.528;8.078;2022-10-31T01:08:22;1.10;;;1.10;;
10082;SDS011;5080;48.528;8.078;2022-10-31T01:10:58;2.47;;;1.52;;
10082;SDS011;5080;48.528;8.078;2022-10-31T01:13:30;1.70;;;1.30;;
10082;SDS011;5080;48.528;8.078;2022-10-31T01:15:58;1.20;;;1.10;;
10082;SDS011;5080;48.528;8.078;2022-10-31T01:18:25;1.53;;;1.33;;
10082;SDS011;5080;48.528;8.078;2022-10-31T01:20:56;1.33;;;1.23;;
10082;SDS011;5080;48.528;8.078;2022-10-31T01:23:25;2.20;;;1.25;;
10082;SDS011;5080;48.528;8.078;2022-10-31T01:25:59;1.17;;;1.17;;
10082;SDS011;5080;48.528;8.078;2022-10-31T01:28:28;1.20;;;1.20;;
10082;SDS011;5080;48.528;8.078;2022-10-31T01:30:54;1.57;;;1.47;;
10082;SDS011;5080;48.528;8.078;2022-10-31T01:33:21;1.42;;;1.33;;
10082;SDS011;5080;48.528;8.078;2022-10-31T01:35:48;1.05;;;1.02;;
10082;SDS011;5080;48.528;8.078;2022-10-31T01:38:15;1.33;;;1.23;;
10082;SDS011;5080;48.528;8.078;2022-10-31T01:40:42;1.55;;;1.45;;
10082;SDS011;5080;48.528;8.078;2022-10-31T01:43:11;1.55;;;1.45;;
10082;SDS011;5080;48.528;8.078;2022-10-31T01:45:39;1.10;;;1.10;;
10082;SDS011;5080;48.528;8.078;2022-10-31T01:48:08;1.40;;;1.30;;
10082;SDS011;5080;48.528;8.078;2022-10-31T01:50:39;1.27;;;1.20;;
10082;SDS011;5080;48.528;8.078;2022-10-31T01:53:08;1.43;;;1.20;;
10082;SDS011;5080;48.528;8.078;2022-10-31T01:55:38;1.30;;;1.17;;
10082;SDS011;5080;48.528;8.078;2022-10-31T01:58:07;1.30;;;1.20;;
10082;SDS011;5080;48.528;8.078;2022-10-31T02:00:38;1.30;;;1.20;;
10082;SDS011;5080;48.528;8.078;2022-10-31T02:03:07;1.15;;;1.10;;
10082;SDS011;5080;48.528;8.078;2022-10-31T02:05:34;1.30;;;1.20;;
10082;SDS011;5080;48.528;8.078;2022-10-31T02:08:02;1.10;;;1.10;;
10082;SDS011;5080;48.528;8.078;2022-10-31T02:10:33;1.35;;;1.25;;
10082;SDS011;5080;48.528;8.078;2022-10-31T02:13:03;1.20;;;1.10;;
10082;SDS011;5080;48.528;8.078;2022-10-31T02:15:33;1.20;;;1.10;;
10082;SDS011;5080;48.528;8.078;2022-10-31T02:18:04;2.28;;;1.40;;
10082;SDS011;5080;48.528;8.078;2022-10-31T02:20:32;1.00;;;1.00;;
10082;SDS011;5080;48.528;8.078;2022-10-31T02:26:07;1.85;;;1.15;;
10082;SDS011;5080;48.528;8.078;2022-10-31T02:28:52;1.23;;;1.17;;
10082;SDS011;5080;48.528;8.078;2022-10-31T02:31:43;1.00;;;1.00;;
10082;SDS011;5080;48.528;8.078;2022-10-31T02:34:20;1.67;;;1.23;;
10082;SDS011;5080;48.528;8.078;2022-10-31T02:36:56;1.57;;;1.27;;
10082;SDS011;5080;48.528;8.078;2022-10-31T02:39:27;1.40;;;1.30;;
10082;SDS011;5080;48.528;8.078;2022-10-31T02:42:01;1.38;;;1.27;;
10082;SDS011;5080;48.528;8.078;2022-10-31T02:44:35;1.30;;;1.20;;
10082;SDS011;5080;48.528;8.078;2022-10-31T02:47:06;1.02;;;0.98;;
10082;SDS011;5080;48.528;8.078;2022-10-31T02:49:38;1.20;;;1.20;;
10082;SDS011;5080;48.528;8.078;2022-10-31T02:52:17;1.65;;;1.30;;
10082;SDS011;5080;48.528;8.078;2022-10-31T02:54:45;1.07;;;1.07;;
10082;SDS011;5080;48.528;8.078;2022-10-31T02:57:13;1.30;;;1.20;;
10082;SDS011;5080;48.528;8.078;2022-10-31T02:59:45;1.27;;;1.23;;
10082;SDS011;5080;48.528;8.078;2022-10-31T03:02:20;1.20;;;1.10;;
10082;SDS011;5080;48.528;8.078;2022-10-31T03:05:11;1.27;;;1.25;;
10082;SDS011;5080;48.528;8.078;2022-10-31T03:07:49;1.10;;;1.10;;
10082;SDS011;5080;48.528;8.078;2022-10-31T03:10:25;2.03;;;1.27;;
10082;SDS011;5080;48.528;8.078;2022-10-31T03:13:00;1.93;;;1.13;;
10082;SDS011;5080;48.528;8.078;2022-10-31T03:15:34;1.43;;;1.33;;
10082;SDS011;5080;48.528;8.078;2022-10-31T03:18:06;1.23;;;1.10;;
10082;SDS011;5080;48.528;8.078;2022-10-31T03:20:36;1.30;;;1.20;;
10082;SDS011;5080;48.528;8.078;2022-10-31T03:23:05;1.30;;;1.23;;
10082;SDS011;5080;48.528;8.078;2022-10-31T03:25:37;1.40;;;1.30;;
10082;SDS011;5080;48.528;8.078;2022-10-31T03:28:05;1.52;;;1.40;;
10082;SDS011;5080;48.528;8.078;2022-10-31T03:30:35;1.38;;;1.27;;
10082;SDS011;5080;48.528;8.078;2022-10-31T03:33:07;1.77;;;1.60;;
10082;SDS011;5080;48.528;8.078;2022-10-31T03:35:37;1.90;;;1.50;;
10082;SDS011;5080;48.528;8.078;2022-10-31T03:38:08;1.25;;;1.20;;
10082;SDS011;5080;48.528;8.078;2022-10-31T03:40:36;1.60;;;1.50;;
10082;SDS011;5080;48.528;8.078;2022-10-31T03:43:07;1.60;;;1.33;;
10082;SDS011;5080;48.528;8.078;2022-10-31T03:45:39;1.35;;;1.25;;
10082;SDS011;5080;48.528;8.078;2022-10-31T03:48:11;1.25;;;1.23;;
10082;SDS011;5080;48.528;8.078;2022-10-31T03:50:40;1.30;;;1.20;;
10082;SDS011;5080;48.528;8.078;2022-10-31T03:53:14;1.37;;;1.10;;
10082;SDS011;5080;48.528;8.078;2022-10-31T03:55:47;1.57;;;1.30;;
10082;SDS011;5080;48.528;8.078;2022-10-31T03:58:19;1.50;;;1.40;;
10082;SDS011;5080;48.528;8.078;2022-10-31T04:00:51;1.10;;;1.10;;
10082;SDS011;5080;48.528;8.078;2022-10-31T04:03:22;1.23;;;1.20;;
10082;SDS011;5080;48.528;8.078;2022-10-31T04:05:52;1.48;;;1.38;;
10082;SDS011;5080;48.528;8.078;2022-10-31T04:08:23;1.30;;;1.20;;
10082;SDS011;5080;48.528;8.078;2022-10-31T04:10:53;1.90;;;1.58;;
10082;SDS011;5080;48.528;8.078;2022-10-31T04:13:23;1.60;;;1.50;;
10082;SDS011;5080;48.528;8.078;2022-10-31T04:15:53;1.00;;;1.00;;
10082;SDS011;5080;48.528;8.078;2022-10-31T04:18:23;1.37;;;1.27;;
10082;SDS011;5080;48.528;8.078;2022-10-31T04:20:58;1.30;;;1.20;;
10082;SDS011;5080;48.528;8.078;2022-10-31T04:23:27;1.67;;;1.57;;
10082;SDS011;5080;48.528;8.078;2022-10-31T04:25:54;1.37;;;1.20;;
10082;SDS011;5080;48.528;8.078;2022-10-31T04:28:21;1.20;;;1.20;;
10082;SDS011;5080;48.528;8.078;2022-10-31T04:30:48;1.00;;;1.00;;
10082;SDS011;5080;48.528;8.078;2022-10-31T04:33:15;1.23;;;1.20;;
10082;SDS011;5080;48.528;8.078;2022-10-31T04:35:43;1.50;;;1.40;;
10082;SDS011;5080;48.528;8.078;2022-10-31T04:38:10;1.13;;;1.13;;
10082;SDS011;5080;48.528;8.078;2022-10-31T04:40:37;1.53;;;1.40;;
10082;SDS011;5080;48.528;8.078;2022-10-31T04:43:03;1.70;;;1.60;;
10082;SDS011;5080;48.528;8.078;2022-10-31T04:45:30;1.75;;;1.38;;
10082;SDS011;5080;48.528;8.078;2022-10-31T04:47:57;1.13;;;1.13;;
10082;SDS011;5080;48.528;8.078;2022-10-31T04:50:24;1.50;;;1.40;;
10082;SDS011;5080;48.528;8.078;2022-10-31T04:52:52;1.40;;;1.30;;
10082;SDS011;5080;48.528;8.078;2022-10-31T04:55:19;1.40;;;1.30;;
10082;SDS011;5080;48.528;8.078;2022-10-31T04:57:46;1.03;;;1.00;;
10082;SDS011;5080;48.528;8.078;2022-10-31T05:00:15;1.57;;;1.40;;
10082;SDS011;5080;48.528;8.078;2022-10-31T05:02:44;1.20;;;1.20;;
10082;SDS011;5080;48.528;8.078;2022-10-31T05:05:11;1.10;;;1.10;;
10082;SDS011;5080;48.528;8.078;2022-10-31T05:07:39;1.40;;;1.20;;
10082;SDS011;5080;48.528;8.078;2022-10-31T05:10:08;1.40;;;1.30;;
10082;SDS011;5080;48.528;8.078;2022-10-31T05:12:36;1.70;;;1.60;;
10082;SDS011;5080;48.528;8.078;2022-10-31T05:15:03;1.50;;;1.40;;
10082;SDS011;5080;48.528;8.078;2022-10-31T05:17:31;1.40;;;1.30;;
10082;SDS011;5080;48.528;8.078;2022-10-31T05:19:58;1.23;;;1.23;;
10082;SDS011;5080;48.528;8.078;2022-10-31T05:22:25;1.40;;;1.30;;
10082;SDS011;5080;48.528;8.078;2022-10-31T05:24:51;1.10;;;1.10;;
10082;SDS011;5080;48.528;8.078;2022-10-31T05:27:20;1.30;;;1.30;;
10082;SDS011;5080;48.528;8.078;2022-10-31T05:29:46;1.37;;;1.30;;
10082;SDS011;5080;48.528;8.078;2022-10-31T05:32:13;1.30;;;1.20;;
10082;SDS011;5080;48.528;8.078;2022-10-31T05:34:40;1.33;;;1.23;;
10082;SDS011;5080;48.528;8.078;2022-10-31T05:37:07;1.93;;;1.30;;
10082;SDS011;5080;48.528;8.078;2022-10-31T05:39:34;1.60;;;1.50;;
10082;SDS011;5080;48.528;8.078;2022-10-31T05:42:00;1.40;;;1.30;;
10082;SDS011;5080;48.528;8.078;2022-10-31T05:44:29;1.63;;;1.43;;
10082;SDS011;5080;48.528;8.078;2022-10-31T05:46:56;1.20;;;1.20;;
10082;SDS011;5080;48.528;8.078;2022-10-31T05:49:22;1.00;;;1.00;;
10082;SDS011;5080;48.528;8.078;2022-10-31T05:51:49;1.67;;;1.43;;
10082;SDS011;5080;48.528;8.078;2022-10-31T05:54:16;1.23;;;1.13;;
10082;SDS011;5080;48.528;8.078;2022-10-31T05:56:43;1.20;;;1.20;;
10082;SDS011;5080;48.528;8.078;2022-10-31T05:59:09;2.08;;;1.40;;
10082;SDS011;5080;48.528;8.078;2022-10-31T06:01:38;1.37;;;1.27;;
10082;SDS011;5080;48.528;8.078;2022-10-31T06:04:04;1.27;;;1.20;;
10082;SDS011;5080;48.528;8.078;2022-10-31T06:06:31;1.20;;;1.20;;
10082;SDS011;5080;48.528;8.078;2022-10-31T06:08:58;1.40;;;1.30;;
10082;SDS011;5080;48.528;8.078;2022-10-31T06:11:25;2.60;;;1.30;;
10082;SDS011;5080;48.528;8.078;2022-10-31T06:13:52;1.43;;;1.30;;
10082;SDS011;5080;48.528;8.078;2022-10-31T06:16:18;1.50;;;1.40;;
10082;SDS011;5080;48.528;8.078;2022-10-31T06:18:47;1.47;;;1.37;;
10082;SDS011;5080;48.528;8.078;2022-10-31T06:21:13;1.50;;;1.30;;
10082;SDS011;5080;48.528;8.078;2022-10-31T06:23:40;1.40;;;1.30;;
10082;SDS011;5080;48.528;8.078;2022-10-31T06:26:07;0.93;;;0.93;;
10082;SDS011;5080;48.528;8.078;2022-10-31T06:28:34;1.40;;;1.30;;
10082;SDS011;5080;48.528;8.078;2022-10-31T06:31:01;1.67;;;1.47;;
10082;SDS011;5080;48.528;8.078;2022-10-31T06:33:27;1.00;;;1.00;;
10082;SDS011;5080;48.528;8.078;2022-10-31T06:35:55;1.30;;;1.30;;
10082;SDS011;5080;48.528;8.078;2022-10-31T06:38:22;1.23;;;1.17;;
10082;SDS011;5080;48.528;8.078;2022-10-31T06:40:51;1.50;;;1.40;;
10082;SDS011;5080;48.528;8.078;2022-10-31T06:43:18;1.57;;;1.47;;
10082;SDS011;5080;48.528;8.078;2022-10-31T06:45:44;1.53;;;1.43;;
10082;SDS011;5080;48.528;8.078;2022-10-31T06:48:11;1.50;;;1.40;;
10082;SDS011;5080;48.528;8.078;2022-10-31T06:50:38;1.47;;;1.37;;
10082;SDS011;5080;48.528;8.078;2022-10-31T06:53:07;1.43;;;1.40;;
10082;SDS011;5080;48.528;8.078;2022-10-31T06:55:36;1.60;;;1.50;;
10082;SDS011;5080;48.528;8.078;2022-10-31T06:58:02;1.60;;;1.50;;
10082;SDS011;5080;48.528;8.078;2022-10-31T07:00:30;1.63;;;1.53;;
10082;SDS011;5080;48.528;8.078;2022-10-31T07:02:57;1.90;;;1.80;;
10082;SDS011;5080;48.528;8.078;2022-10-31T07:05:26;2.00;;;1.90;;
10082;SDS011;5080;48.528;8.078;2022-10-31T07:07:53;1.90;;;1.80;;
10082;SDS011;5080;48.528;8.078;2022-10-31T07:10:22;1.97;;;1.60;;
10082;SDS011;5080;48.528;8.078;2022-10-31T07:12:53;1.57;;;1.47;;
10082;SDS011;5080;48.528;8.078;2022-10-31T07:15:21;1.40;;;1.30;;
10082;SDS011;5080;48.528;8.078;2022-10-31T07:17:48;1.40;;;1.30;;
10082;SDS011;5080;48.528;8.078;2022-10-31T07:20:15;1.60;;;1.50;;
10082;SDS011;5080;48.528;8.078;2022-10-31T07:22:42;1.40;;;1.30;;
10082;SDS011;5080;48.528;8.078;2022-10-31T07:25:09;1.40;;;1.30;;
10082;SDS011;5080;48.528;8.078;2022-10-31T07:27:38;1.23;;;1.23;;
10082;SDS011;5080;48.528;8.078;2022-10-31T07:30:06;1.30;;;1.30;;
10082;SDS011;5080;48.528;8.078;2022-10-31T07:32:37;1.50;;;1.40;;
10082;SDS011;5080;48.528;8.078;2022-10-31T07:35:05;1.27;;;1.17;;
10082;SDS011;5080;48.528;8.078;2022-10-31T07:37:32;1.40;;;1.30;;
10082;SDS011;5080;48.528;8.078;2022-10-31T07:39:59;1.60;;;1.50;;
10082;SDS011;5080;48.528;8.078;2022-10-31T07:42:26;1.97;;;1.40;;
10082;SDS011;5080;48.528;8.078;2022-10-31T07:44:54;1.33;;;1.23;;
10082;SDS011;5080;48.528;8.078;2022-10-31T07:47:21;1.30;;;1.30;;
10082;SDS011;5080;48.528;8.078;2022-10-31T07:49:48;2.07;;;1.50;;
10082;SDS011;5080;48.528;8.078;2022-10-31T07:52:15;1.60;;;1.50;;
10082;SDS011;5080;48.528;8.078;2022-10-31T07:54:42;1.70;;;1.60;;
10082;SDS011;5080;48.528;8.078;2022-10-31T07:57:09;1.27;;;1.23;;
10082;SDS011;5080;48.528;8.078;2022-10-31T07:59:36;1.60;;;1.40;;
10082;SDS011;5080;48.528;8.078;2022-10-31T08:02:04;1.60;;;1.50;;
10082;SDS011;5080;48.528;8.078;2022-10-31T08:04:31;1.30;;;1.20;;
10082;SDS011;5080;48.528;8.078;2022-10-31T08:06:58;1.57;;;1.47;;
10082;SDS011;5080;48.528;8.078;2022-10-31T08:09:24;1.20;;;1.20;;
10082;SDS011;5080;48.528;8.078;2022-10-31T08:11:52;1.70;;;1.57;;
10082;SDS011;5080;48.528;8.078;2022-10-31T08:14:19;1.27;;;1.17;;
10082;SDS011;5080;48.528;8.078;2022-10-31T08:16:46;1.20;;;1.20;;
10082;SDS011;5080;48.528;8.078;2022-10-31T08:19:14;1.47;;;1.20;;
10082;SDS011;5080;48.528;8.078;2022-10-31T08:21:41;1.17;;;1.13;;
10082;SDS011;5080;48.528;8.078;2022-10-31T08:24:07;1.37;;;1.27;;
10082;SDS011;5080;48.528;8.078;2022-10-31T08:26:34;2.07;;;1.40;;
10082;SDS011;5080;48.528;8.078;2022-10-31T08:29:01;1.53;;;1.43;;
10082;SDS011;5080;48.528;8.078;2022-10-31T08:31:29;1.10;;;1.10;;
10082;SDS011;5080;48.528;8.078;2022-10-31T08:33:56;1.40;;;1.30;;
10082;SDS011;5080;48.528;8.078;2022-10-31T08:36:24;1.20;;;1.10;;
10082;SDS011;5080;48.528;8.078;2022-10-31T08:38:52;1.37;;;1.27;;
10082;SDS011;5080;48.528;8.078;2022-10-31T08:41:19;2.10;;;1.63;;
10082;SDS011;5080;48.528;8.078;2022-10-31T08:43:46;1.40;;;1.30;;
10082;SDS011;5080;48.528;8.078;2022-10-31T08:46:13;1.67;;;1.37;;
10082;SDS011;5080;48.528;8.078;2022-10-31T08:48:40;1.50;;;1.30;;
10082;SDS011;5080;48.528;8.078;2022-10-31T08:51:08;1.40;;;1.30;;
10082;SDS011;5080;48.528;8.078;2022-10-31T08:53:36;1.33;;;1.23;;
10082;SDS011;5080;48.528;8.078;2022-10-31T08:56:03;1.53;;;1.43;;
10082;SDS011;5080;48.528;8.078;2022-10-31T08:58:30;1.50;;;1.40;;
10082;SDS011;5080;48.528;8.078;2022-10-31T09:00:58;1.20;;;1.20;;
10082;SDS011;5080;48.528;8.078;2022-10-31T09:03:27;1.45;;;1.35;;
10082;SDS011;5080;48.528;8.078;2022-10-31T09:05:56;1.23;;;1.23;;
10082;SDS011;5080;48.528;8.078;2022-10-31T09:08:24;1.40;;;1.30;;
10082;SDS011;5080;48.528;8.078;2022-10-31T09:10:55;1.30;;;1.20;;
10082;SDS011;5080;48.528;8.078;2022-10-31T09:13:22;1.60;;;1.50;;
10082;SDS011;5080;48.528;8.078;2022-10-31T09:15:49;1.57;;;1.47;;
10082;SDS011;5080;48.528;8.078;2022-10-31T09:18:17;1.80;;;1.53;;
10082;SDS011;5080;48.528;8.078;2022-10-31T09:20:46;1.57;;;1.47;;
10082;SDS011;5080;48.528;8.078;2022-10-31T09:23:14;1.60;;;1.50;;
10082;SDS011;5080;48.528;8.078;2022-10-31T09:25:43;1.60;;;1.50;;
10082;SDS011;5080;48.528;8.078;2022-10-31T09:28:12;1.53;;;1.43;;
10082;SDS011;5080;48.528;8.078;2022-10-31T09:30:40;1.40;;;1.30;;
10082;SDS011;5080;48.528;8.078;2022-10-31T09:33:09;1.50;;;1.40;;
10082;SDS011;5080;48.528;8.078;2022-10-31T09:35:37;1.50;;;1.40;;
10082;SDS011;5080;48.528;8.078;2022-10-31T09:38:05;1.37;;;1.27;;
10082;SDS011;5080;48.528;8.078;2022-10-31T09:40:35;1.40;;;1.30;;
10082;SDS011;5080;48.528;8.078;2022-10-31T09:43:06;1.80;;;1.50;;
10082;SDS011;5080;48.528;8.078;2022-10-31T09:45:43;1.17;;;1.17;;
10082;SDS011;5080;48.528;8.078;2022-10-31T09:48:35;1.87;;;1.67;;
10082;SDS011;5080;48.528;8.078;2022-10-31T09:51:12;1.60;;;1.50;;
10082;SDS011;5080;48.528;8.078;2022-10-31T09:53:43;1.50;;;1.40;;
10082;SDS011;5080;48.528;8.078;2022-10-31T09:56:15;1.53;;;1.40;;
10082;SDS011;5080;48.528;8.078;2022-10-31T09:58:45;1.50;;;1.40;;
10082;SDS011;5080;48.528;8.078;2022-10-31T10:01:19;1.70;;;1.60;;
10082;SDS011;5080;48.528;8.078;2022-10-31T10:04:03;1.40;;;1.30;;
10082;SDS011;5080;48.528;8.078;2022-10-31T10:06:47;1.63;;;1.53;;
10082;SDS011;5080;48.528;8.078;2022-10-31T10:09:17;2.10;;;1.40;;
10082;SDS011;5080;48.528;8.078;2022-10-31T10:11:51;1.60;;;1.50;;
10082;SDS011;5080;48.528;8.078;2022-10-31T10:14:28;1.50;;;1.40;;
10082;SDS011;5080;48.528;8.078;2022-10-31T10:17:06;1.70;;;1.60;;
10082;SDS011;5080;48.528;8.078;2022-10-31T10:19:49;1.23;;;1.23;;
10082;SDS011;5080;48.528;8.078;2022-10-31T10:22:29;1.50;;;1.40;;
10082;SDS011;5080;48.528;8.078;2022-10-31T10:25:08;1.60;;;1.50;;
10082;SDS011;5080;48.528;8.078;2022-10-31T10:27:44;1.40;;;1.40;;
10082;SDS011;5080;48.528;8.078;2022-10-31T10:30:17;1.57;;;1.47;;
10082;SDS011;5080;48.528;8.078;2022-10-31T10:32:48;1.83;;;1.73;;
10082;SDS011;5080;48.528;8.078;2022-10-31T10:35:19;2.43;;;1.30;;
10082;SDS011;5080;48.528;8.078;2022-10-31T10:37:52;1.50;;;1.40;;
10082;SDS011;5080;48.528;8.078;2022-10-31T10:40:23;1.60;;;1.50;;
10082;SDS011;5080;48.528;8.078;2022-10-31T10:42:56;1.63;;;1.53;;
10082;SDS011;5080;48.528;8.078;2022-10-31T10:45:49;1.33;;;1.23;;
10082;SDS011;5080;48.528;8.078;2022-10-31T10:48:43;1.40;;;1.30;;
10082;SDS011;5080;48.528;8.078;2022-10-31T10:51:15;1.63;;;1.50;;
10082;SDS011;5080;48.528;8.078;2022-10-31T10:53:51;1.70;;;1.60;;
10082;SDS011;5080;48.528;8.078;2022-10-31T10:56:33;1.70;;;1.60;;
10082;SDS011;5080;48.528;8.078;2022-10-31T10:59:06;1.73;;;1.63;;
10082;SDS011;5080;48.528;8.078;2022-10-31T11:01:36;2.00;;;1.60;;
10082;SDS011;5080;48.528;8.078;2022-10-31T11:04:09;1.40;;;1.30;;
10082;SDS011;5080;48.528;8.078;2022-10-31T11:06:56;1.70;;;1.50;;
10082;SDS011;5080;48.528;8.078;2022-10-31T11:09:24;1.60;;;1.50;;
10082;SDS011;5080;48.528;8.078;2022-10-31T11:11:51;1.53;;;1.43;;
10082;SDS011;5080;48.528;8.078;2022-10-31T11:14:18;1.73;;;1.63;;
10082;SDS011;5080;48.528;8.078;2022-10-31T11:16:46;1.80;;;1.70;;
10082;SDS011;5080;48.528;8.078;2022-10-31T11:19:17;1.77;;;1.67;;
10082;SDS011;5080;48.528;8.078;2022-10-31T11:21:47;1.90;;;1.80;;
10082;SDS011;5080;48.528;8.078;2022-10-31T11:24:15;1.87;;;1.77;;
10082;SDS011;5080;48.528;8.078;2022-10-31T11:26:43;1.90;;;1.80;;
10082;SDS011;5080;48.528;8.078;2022-10-31T11:29:16;1.80;;;1.70;;
10082;SDS011;5080;48.528;8.078;2022-10-31T11:31:46;1.70;;;1.60;;
10082;SDS011;5080;48.528;8.078;2022-10-31T11:34:22;1.67;;;1.57;;
10082;SDS011;5080;48.528;8.078;2022-10-31T11:36:54;1.33;;;1.30;;
10082;SDS011;5080;48.528;8.078;2022-10-31T11:39:27;1.80;;;1.70;;
10082;SDS011;5080;48.528;8.078;2022-10-31T11:41:54;1.80;;;1.70;;
10082;SDS011;5080;48.528;8.078;2022-10-31T11:44:26;1.83;;;1.73;;
10082;SDS011;5080;48.528;8.078;2022-10-31T11:46:55;1.93;;;1.80;;
10082;SDS011;5080;48.528;8.078;2022-10-31T11:49:28;2.07;;;1.97;;
10082;SDS011;5080;48.528;8.078;2022-10-31T11:51:58;2.23;;;1.60;;
10082;SDS011;5080;48.528;8.078;2022-10-31T11:54:27;1.63;;;1.53;;
10082;SDS011;5080;48.528;8.078;2022-10-31T11:56:57;1.60;;;1.50;;
10082;SDS011;5080;48.528;8.078;2022-10-31T11:59:25;1.60;;;1.50;;
10082;SDS011;5080;48.528;8.078;2022-10-31T12:01:54;1.90;;;1.43;;
10082;SDS011;5080;48.528;8.078;2022-10-31T12:04:26;1.70;;;1.60;;
10082;SDS011;5080;48.528;8.078;2022-10-31T12:07:04;1.70;;;1.60;;
10082;SDS011;5080;48.528;8.078;2022-10-31T12:09:33;1.60;;;1.50;;
10082;SDS011;5080;48.528;8.078;2022-10-31T12:12:05;1.47;;;1.37;;
10082;SDS011;5080;48.528;8.078;2022-10-31T12:14:45;2.20;;;2.00;;
10082;SDS011;5080;48.528;8.078;2022-10-31T12:17:21;1.63;;;1.53;;
10082;SDS011;5080;48.528;8.078;2022-10-31T12:19:59;1.80;;;1.70;;
10082;SDS011;5080;48.528;8.078;2022-10-31T12:22:34;1.63;;;1.50;;
10082;SDS011;5080;48.528;8.078;2022-10-31T12:25:16;2.50;;;1.80;;
10082;SDS011;5080;48.528;8.078;2022-10-31T12:27:55;1.70;;;1.60;;
10082;SDS011;5080;48.528;8.078;2022-10-31T12:30:36;1.77;;;1.67;;
10082;SDS011;5080;48.528;8.078;2022-10-31T12:33:21;2.00;;;1.60;;
10082;SDS011;5080;48.528;8.078;2022-10-31T12:36:02;1.77;;;1.67;;
10082;SDS011;5080;48.528;8.078;2022-10-31T12:38:48;1.70;;;1.60;;
10082;SDS011;5080;48.528;8.078;2022-10-31T12:41:35;2.27;;;2.17;;
10082;SDS011;5080;48.528;8.078;2022-10-31T12:44:12;2.90;;;2.70;;
10082;SDS011;5080;48.528;8.078;2022-10-31T12:46:55;2.57;;;2.37;;
10082;SDS011;5080;48.528;8.078;2022-10-31T12:49:38;2.67;;;2.47;;
10082;SDS011;5080;48.528;8.078;2022-10-31T12:52:17;2.30;;;2.10;;
10082;SDS011;5080;48.528;8.078;2022-10-31T12:54:56;2.13;;;2.03;;
10082;SDS011;5080;48.528;8.078;2022-10-31T12:57:35;2.87;;;2.30;;
10082;SDS011;5080;48.528;8.078;2022-10-31T13:00:10;2.73;;;2.20;;
10082;SDS011;5080;48.528;8.078;2022-10-31T13:02:42;1.80;;;1.70;;
10082;SDS011;5080;48.528;8.078;2022-10-31T13:05:17;1.92;;;1.83;;
10082;SDS011;5080;48.528;8.078;2022-10-31T13:07:49;1.80;;;1.70;;
10082;SDS011;5080;48.528;8.078;2022-10-31T13:10:22;1.97;;;1.87;;
10082;SDS011;5080;48.528;8.078;2022-10-31T13:12:53;2.10;;;2.00;;
10082;SDS011;5080;48.528;8.078;2022-10-31T13:15:25;2.10;;;2.00;;
10082;SDS011;5080;48.528;8.078;2022-10-31T13:17:56;2.00;;;1.90;;
10082;SDS011;5080;48.528;8.078;2022-10-31T13:20:27;2.40;;;2.20;;
10082;SDS011;5080;48.528;8.078;2022-10-31T13:23:03;2.10;;;2.00;;
10082;SDS011;5080;48.528;8.078;2022-10-31T13:25:37;2.30;;;2.20;;
10082;SDS011;5080;48.528;8.078;2022-10-31T13:28:09;2.30;;;2.10;;
10082;SDS011;5080;48.528;8.078;2022-10-31T13:30:42;2.10;;;2.00;;
10082;SDS011;5080;48.528;8.078;2022-10-31T13:33:11;2.10;;;2.00;;
10082;SDS011;5080;48.528;8.078;2022-10-31T13:35:46;2.00;;;1.90;;
10082;SDS011;5080;48.528;8.078;2022-10-31T13:38:21;1.80;;;1.70;;
10082;SDS011;5080;48.528;8.078;2022-10-31T13:40:56;1.80;;;1.70;;
10082;SDS011;5080;48.528;8.078;2022-10-31T13:43:30;1.80;;;1.70;;
10082;SDS011;5080;48.528;8.078;2022-10-31T13:46:20;1.90;;;1.80;;
10082;SDS011;5080;48.528;8.078;2022-10-31T13:48:49;2.23;;;1.90;;
10082;SDS011;5080;48.528;8.078;2022-10-31T13:51:24;1.77;;;1.67;;
10082;SDS011;5080;48.528;8.078;2022-10-31T13:53:58;2.00;;;1.90;;
10082;SDS011;5080;48.528;8.078;2022-10-31T13:56:26;1.67;;;1.57;;
10082;SDS011;5080;48.528;8.078;2022-10-31T14:01:46;1.97;;;1.87;;
10082;SDS011;5080;48.528;8.078;2022-10-31T14:04:19;1.80;;;1.70;;
10082;SDS011;5080;48.528;8.078;2022-10-31T14:06:51;1.92;;;1.77;;
10082;SDS011;5080;48.528;8.078;2022-10-31T14:09:26;2.27;;;2.07;;
10082;SDS011;5080;48.528;8.078;2022-10-31T14:11:57;1.90;;;1.80;;
10082;SDS011;5080;48.528;8.078;2022-10-31T14:14:30;2.00;;;1.90;;
10082;SDS011;5080;48.528;8.078;2022-10-31T14:17:12;1.70;;;1.60;;
10082;SDS011;5080;48.528;8.078;2022-10-31T14:22:51;1.73;;;1.63;;
10082;SDS011;5080;48.528;8.078;2022-10-31T14:25:26;1.70;;;1.60;;
10082;SDS011;5080;48.528;8.078;2022-10-31T14:27:54;2.13;;;1.70;;
10082;SDS011;5080;48.528;8.078;2022-10-31T14:30:22;1.87;;;1.77;;
10082;SDS011;5080;48.528;8.078;2022-10-31T14:32:52;1.70;;;1.60;;
10082;SDS011;5080;48.528;8.078;2022-10-31T14:35:21;1.70;;;1.60;;
10082;SDS011;5080;48.528;8.078;2022-10-31T14:37:59;1.80;;;1.70;;
10082;SDS011;5080;48.528;8.078;2022-10-31T14:41:02;1.50;;;1.50;;
10082;SDS011;5080;48.528;8.078;2022-10-31T14:44:03;2.23;;;2.03;;
10082;SDS011;5080;48.528;8.078;2022-10-31T14:46:47;1.70;;;1.60;;
10082;SDS011;5080;48.528;8.078;2022-10-31T14:49:27;1.90;;;1.80;;
10082;SDS011;5080;48.528;8.078;2022-10-31T14:52:08;2.50;;;2.30;;
10082;SDS011;5080;48.528;8.078;2022-10-31T14:54:38;2.20;;;2.03;;
10082;SDS011;5080;48.528;8.078;2022-10-31T14:57:13;2.50;;;2.30;;
10082;SDS011;5080;48.528;8.078;2022-10-31T14:59:44;1.90;;;1.80;;
10082;SDS011;5080;48.528;8.078;2022-10-31T15:02:16;2.07;;;1.87;;
10082;SDS011;5080;48.528;8.078;2022-10-31T15:04:49;2.23;;;2.13;;
10082;SDS011;5080;48.528;8.078;2022-10-31T15:07:18;3.40;;;1.90;;
10082;SDS011;5080;48.528;8.078;2022-10-31T15:09:54;2.37;;;2.17;;
10082;SDS011;5080;48.528;8.078;2022-10-31T15:12:25;1.83;;;1.73;;
10082;SDS011;5080;48.528;8.078;2022-10-31T15:14:53;1.93;;;1.80;;
10082;SDS011;5080;48.528;8.078;2022-10-31T15:17:20;2.20;;;2.00;;
10082;SDS011;5080;48.528;8.078;2022-10-31T15:19:48;2.20;;;2.03;;
10082;SDS011;5080;48.528;8.078;2022-10-31T15:22:16;2.20;;;2.10;;
10082;SDS011;5080;48.528;8.078;2022-10-31T15:24:44;2.10;;;1.90;;
10082;SDS011;5080;48.528;8.078;2022-10-31T15:27:12;2.20;;;2.00;;
10082;SDS011;5080;48.528;8.078;2022-10-31T15:29:48;2.40;;;2.20;;
10082;SDS011;5080;48.528;8.078;2022-10-31T15:32:18;2.30;;;2.10;;